Time;durP1;ratioP1;P1;durP2;ratioP2;P2;SDS_P1;SDS_P2;PMS_P1;PMS_P2;Temp;Humidity;BMP_temperature;BMP_pressure;BME280_temperature;BME280_humidity;BME280_pressure;Samples;Min_cycle;Max_cycle;Signal;HPM_P1;HPM_P2
2022/10/16 04:02:23;;;;;;;0.60;0.10;;;16.60;1.00;;;;;;5199430;23;20509;-78
2022/10/16 04:04:51;;;;;;;0.60;0.10;;;16.60;1.00;;;;;;4983118;28;20439;-77
2022/10/16 04:07:19;;;;;;;0.60;0.10;;;16.60;1.00;;;;;;4977978;28;20423;-77
2022/10/16 04:09:46;;;;;;;0.50;0.10;;;16.60;1.00;;;;;;4970684;28;20439;-78
2022/10/16 04:12:15;;;;;;;0.60;0.10;;;;;;;;;;4956668;29;20472;-78
2022/10/16 04:14:42;;;;;;;0.60;0.10;;;16.60;1.00;;;;;;4980415;23;20525;-74
2022/10/16 04:17:10;;;;;;;0.60;0.10;;;16.60;1.00;;;;;;4975472;28;20516;-74
2022/10/16 04:19:39;;;;;;;0.60;0.10;;;16.60;1.00;;;;;;4971770;28;20451;-74
2022/10/16 04:22:10;;;;;;;0.60;0.10;;;16.60;1.00;;;;;;4972028;28;20548;-74
2022/10/16 04:24:37;;;;;;;0.60;0.10;;;16.50;1.00;;;;;;4974064;28;21077;-75
2022/10/16 04:27:05;;;;;;;0.60;0.10;;;16.60;1.00;;;;;;4965515;28;20489;-74
2022/10/16 04:29:33;;;;;;;0.60;0.10;;;16.50;1.00;;;;;;4973345;28;20458;-74
2022/10/16 04:32:01;;;;;;;0.60;0.10;;;16.50;1.00;;;;;;4965968;28;20459;-74
2022/10/16 04:34:28;;;;;;;0.60;0.10;;;16.60;1.00;;;;;;4960072;28;20832;-75
2022/10/16 04:36:57;;;;;;;0.60;0.10;;;16.60;1.00;;;;;;4971025;28;20509;-75
2022/10/16 04:39:25;;;;;;;0.60;0.10;;;16.60;1.00;;;;;;4966218;28;20483;-75
2022/10/16 04:41:53;;;;;;;0.60;0.10;;;16.70;1.00;;;;;;4962108;28;20446;-76
2022/10/16 04:44:21;;;;;;;0.60;0.10;;;16.70;1.00;;;;;;4970445;28;20524;-75
2022/10/16 04:46:50;;;;;;;0.60;0.10;;;16.70;1.00;;;;;;4975968;28;20445;-75
2022/10/16 04:49:18;;;;;;;0.60;0.10;;;16.70;1.00;;;;;;4974581;28;20454;-75
2022/10/16 04:51:46;;;;;;;0.60;0.10;;;16.70;1.00;;;;;;4966254;28;20459;-76
2022/10/16 04:54:15;;;;;;;0.60;0.10;;;16.70;1.00;;;;;;4972205;28;20528;-75
2022/10/16 04:56:47;;;;;;;0.60;0.10;;;16.70;1.00;;;;;;4974396;28;20546;-73
2022/10/16 04:59:15;;;;;;;0.60;0.10;;;16.80;1.00;;;;;;4962935;28;20510;-75
2022/10/16 05:01:43;;;;;;;0.60;0.10;;;16.80;1.00;;;;;;4965588;28;20442;-73
2022/10/16 05:04:11;;;;;;;0.60;0.20;;;16.80;1.00;;;;;;4970767;28;20518;-75
2022/10/16 05:06:40;;;;;;;0.60;0.10;;;16.80;1.00;;;;;;4974386;28;20750;-73
2022/10/16 05:09:09;;;;;;;0.60;0.10;;;16.80;1.00;;;;;;4961754;28;20506;-75
2022/10/16 05:11:38;;;;;;;0.60;0.10;;;16.70;1.00;;;;;;4978373;28;20924;-75
2022/10/16 05:14:05;;;;;;;0.60;0.10;;;16.80;1.00;;;;;;4960107;28;20478;-75
2022/10/16 05:16:34;;;;;;;0.60;0.10;;;16.40;1.00;;;;;;4972275;28;20536;-76
2022/10/16 05:19:01;;;;;;;0.60;0.10;;;16.80;1.00;;;;;;4955129;29;20482;-76
2022/10/16 05:21:49;;;;;;;0.60;0.10;;;16.80;1.00;;;;;;4956772;28;20479;-75
2022/10/16 05:24:17;;;;;;;0.60;0.10;;;16.80;1.00;;;;;;4964958;28;20578;-73
2022/10/16 05:26:46;;;;;;;0.57;0.10;;;16.80;1.00;;;;;;4958888;28;20466;-75
2022/10/16 05:29:14;;;;;;;0.60;0.10;;;16.90;1.00;;;;;;4967264;28;20454;-77
2022/10/16 05:31:42;;;;;;;0.60;0.10;;;16.80;1.00;;;;;;4965575;28;20473;-75
2022/10/16 05:34:10;;;;;;;0.60;0.10;;;16.80;1.00;;;;;;4968448;28;20474;-76
2022/10/16 05:36:38;;;;;;;0.60;0.10;;;16.80;1.00;;;;;;4957372;28;20477;-75
2022/10/16 05:39:06;;;;;;;0.60;0.10;;;16.80;1.00;;;;;;4957876;28;20508;-76
2022/10/16 05:41:33;;;;;;;0.60;0.10;;;16.80;1.00;;;;;;4969906;28;20949;-76
2022/10/16 05:44:05;;;;;;;0.60;0.10;;;16.80;1.00;;;;;;4972450;28;20485;-76
2022/10/16 05:46:33;;;;;;;0.60;0.10;;;16.80;1.00;;;;;;4956251;28;20459;-76
2022/10/16 05:49:01;;;;;;;0.60;0.10;;;16.80;1.00;;;;;;4967883;28;20461;-75
2022/10/16 05:51:28;;;;;;;0.60;0.10;;;16.80;1.00;;;;;;4974327;28;20456;-76
2022/10/16 05:53:56;;;;;;;0.60;0.10;;;16.80;1.00;;;;;;4973287;28;20945;-74
2022/10/16 05:56:24;;;;;;;0.60;0.10;;;16.80;1.00;;;;;;4972945;28;20462;-76
2022/10/16 05:58:52;;;;;;;0.60;0.10;;;16.80;1.00;;;;;;4956372;28;20462;-76
2022/10/16 06:01:23;;;;;;;0.60;0.10;;;16.80;1.00;;;;;;4954348;28;20475;-75
2022/10/16 06:03:52;;;;;;;0.60;0.10;;;16.70;1.00;;;;;;4969948;28;20905;-76
2022/10/16 06:06:22;;;;;;;0.60;0.10;;;16.70;1.00;;;;;;4965599;28;20459;-75
2022/10/16 06:08:50;;;;;;;0.60;0.10;;;16.70;1.00;;;;;;4973632;28;20454;-75
2022/10/16 06:11:20;;;;;;;0.60;0.10;;;16.70;1.00;;;;;;4967586;28;20469;-75
2022/10/16 06:13:50;;;;;;;0.60;0.10;;;16.80;1.00;;;;;;4971959;28;20809;-75
2022/10/16 06:16:19;;;;;;;0.60;0.10;;;16.90;1.00;;;;;;4972787;28;20462;-75
2022/10/16 06:18:48;;;;;;;0.60;0.10;;;16.90;1.00;;;;;;4960833;28;20455;-75
2022/10/16 06:21:19;;;;;;;0.60;0.10;;;16.90;1.00;;;;;;4954514;28;20514;-75
2022/10/16 06:23:47;;;;;;;0.60;0.10;;;16.90;1.00;;;;;;4958721;28;20895;-74
2022/10/16 06:26:17;;;;;;;0.60;0.10;;;16.90;1.00;;;;;;4964464;28;20509;-75
2022/10/16 06:28:45;;;;;;;0.60;0.10;;;16.90;1.00;;;;;;4972640;28;21252;-75
2022/10/16 06:31:13;;;;;;;0.60;0.10;;;16.90;1.00;;;;;;4973187;28;20457;-76
2022/10/16 06:33:42;;;;;;;0.60;0.10;;;16.90;1.00;;;;;;4974644;28;20505;-74
2022/10/16 06:36:13;;;;;;;0.60;0.10;;;16.90;1.00;;;;;;4979326;28;20526;-74
2022/10/16 06:38:43;;;;;;;0.60;0.10;;;17.00;1.00;;;;;;4986775;28;20486;-76
2022/10/16 06:41:13;;;;;;;0.60;0.10;;;17.00;1.00;;;;;;4985969;28;20470;-76
2022/10/16 06:43:41;;;;;;;0.60;0.10;;;17.00;1.00;;;;;;4978510;28;20933;-76
2022/10/16 06:46:11;;;;;;;0.60;0.10;;;17.00;1.00;;;;;;4977607;28;20536;-75
2022/10/16 06:48:39;;;;;;;0.60;0.10;;;17.10;1.00;;;;;;4977339;28;20446;-75
2022/10/16 06:51:10;;;;;;;0.60;0.10;;;17.10;1.00;;;;;;4977544;28;20999;-76
2022/10/16 06:53:41;;;;;;;0.60;0.10;;;17.00;1.00;;;;;;4976882;28;20442;-76
2022/10/16 06:56:30;;;;;;;0.60;0.10;;;17.10;1.00;;;;;;4961368;28;20537;-75
2022/10/16 06:58:58;;;;;;;0.60;0.10;;;17.10;1.00;;;;;;4958304;29;20451;-76
2022/10/16 07:01:27;;;;;;;0.60;0.10;;;17.10;1.00;;;;;;4965962;28;20477;-76
2022/10/16 07:03:55;;;;;;;0.60;0.10;;;17.10;1.00;;;;;;4975392;28;20529;-76
2022/10/16 07:06:27;;;;;;;0.60;0.10;;;17.10;1.00;;;;;;4963947;28;20454;-76
2022/10/16 07:08:56;;;;;;;0.60;0.10;;;17.20;1.00;;;;;;4958330;28;20467;-75
2022/10/16 07:11:25;;;;;;;0.60;0.20;;;17.20;1.00;;;;;;4968599;28;20457;-75
2022/10/16 07:13:53;;;;;;;0.60;0.10;;;;;;;;;;4960823;28;20447;-76
2022/10/16 07:16:25;;;;;;;0.60;0.10;;;17.20;1.00;;;;;;4958738;28;21016;-75
2022/10/16 07:18:58;;;;;;;0.60;0.10;;;19.40;1.00;;;;;;4964215;28;20442;-75
2022/10/16 07:21:28;;;;;;;0.60;0.10;;;17.20;1.00;;;;;;4977023;28;20450;-75
2022/10/16 07:23:59;;;;;;;0.60;0.10;;;17.30;1.00;;;;;;4962421;28;20479;-75
2022/10/16 07:26:28;;;;;;;0.60;0.10;;;17.40;1.00;;;;;;4957050;28;20451;-75
2022/10/16 07:28:56;;;;;;;0.60;0.10;;;17.40;1.00;;;;;;4957425;28;20818;-74
2022/10/16 07:31:25;;;;;;;0.60;0.10;;;17.40;1.00;;;;;;4972592;28;20485;-74
2022/10/16 07:33:52;;;;;;;0.60;0.10;;;17.40;1.00;;;;;;4973360;28;21154;-77
2022/10/16 07:36:22;;;;;;;0.60;0.20;;;17.40;1.00;;;;;;4968651;28;20487;-77
2022/10/16 07:38:50;;;;;;;0.70;0.20;;;17.40;1.00;;;;;;4974748;28;20446;-80
2022/10/16 07:41:25;;;;;;;0.60;0.10;;;17.40;1.00;;;;;;4973586;28;20206;-80
2022/10/16 07:43:54;;;;;;;0.60;0.10;;;;;;;;;;4975896;28;20474;-83
2022/10/16 07:46:23;;;;;;;0.60;0.10;;;17.40;1.00;;;;;;4979015;28;20458;-79
2022/10/16 07:48:51;;;;;;;0.60;0.10;;;17.40;1.00;;;;;;5001449;28;20453;-80
2022/10/16 07:51:21;;;;;;;0.60;0.20;;;17.50;1.00;;;;;;4976496;28;20587;-77
2022/10/16 07:53:50;;;;;;;0.60;0.20;;;17.40;1.00;;;;;;4981987;28;20434;-77
2022/10/16 07:56:19;;;;;;;0.60;0.10;;;17.40;1.00;;;;;;4978263;28;20965;-79
2022/10/16 07:58:49;;;;;;;0.60;0.10;;;17.30;1.00;;;;;;4982646;28;20768;-78
2022/10/16 08:01:18;;;;;;;0.60;0.10;;;17.30;1.00;;;;;;4985037;28;20888;-79
2022/10/16 08:03:48;;;;;;;0.60;0.10;;;17.30;1.00;;;;;;4978877;28;20861;-81
2022/10/16 08:06:16;;;;;;;0.60;0.10;;;17.30;1.00;;;;;;4980657;28;20556;-81
2022/10/16 08:08:48;;;;;;;0.60;0.10;;;17.30;1.00;;;;;;4984960;28;20442;-79
2022/10/16 08:11:16;;;;;;;0.60;0.10;;;17.30;1.00;;;;;;4973766;28;20521;-80
2022/10/16 08:13:44;;;;;;;0.60;0.10;;;17.30;1.00;;;;;;4980046;28;20462;-84
2022/10/16 08:16:13;;;;;;;9.63;8.97;;;17.30;1.00;;;;;;4988601;28;20485;-82
2022/10/16 08:18:42;;;;;;;0.60;0.10;;;17.30;1.00;;;;;;4993241;28;20477;-79
2022/10/16 08:21:14;;;;;;;0.60;0.10;;;17.30;1.00;;;;;;4995059;28;20437;-80
2022/10/16 08:23:48;;;;;;;0.60;0.10;;;17.40;1.00;;;;;;5002974;28;20425;-80
2022/10/16 08:26:24;;;;;;;0.60;0.10;;;17.40;1.00;;;;;;4986995;28;20477;-80
2022/10/16 08:28:52;;;;;;;0.60;0.10;;;17.40;1.00;;;;;;4980328;28;20434;-79
2022/10/16 08:31:22;;;;;;;0.60;0.10;;;17.40;1.00;;;;;;4999921;28;20460;-79
2022/10/16 08:33:51;;;;;;;0.60;0.10;;;17.40;1.00;;;;;;5014623;28;20492;-80
2022/10/16 08:36:18;;;;;;;0.60;0.20;;;17.40;1.00;;;;;;4990948;28;20468;-79
2022/10/16 08:38:49;;;;;;;0.60;0.10;;;17.40;1.00;;;;;;4982823;28;20549;-77
2022/10/16 08:41:55;;;;;;;0.60;0.10;;;17.40;1.00;;;;;;4981774;28;20464;-79
2022/10/16 08:44:39;;;;;;;0.60;0.10;;;17.40;1.00;;;;;;4976308;28;20504;-78
2022/10/16 08:47:17;;;;;;;0.60;0.10;;;17.40;1.00;;;;;;4978248;28;20458;-79
2022/10/16 08:49:56;;;;;;;0.60;0.10;;;17.40;1.00;;;;;;4977187;28;20458;-79
2022/10/16 08:52:26;;;;;;;0.60;0.10;;;17.40;1.00;;;;;;4959149;28;20450;-80
2022/10/16 08:54:57;;;;;;;0.60;0.10;;;17.40;1.00;;;;;;4974281;28;20460;-79
2022/10/16 08:57:27;;;;;;;0.60;0.10;;;17.40;1.00;;;;;;4983325;28;20454;-79
2022/10/16 09:00:00;;;;;;;0.60;0.10;;;17.40;1.00;;;;;;4976194;28;20490;-78
2022/10/16 09:02:35;;;;;;;0.60;0.10;;;19.40;1.00;;;;;;4970751;28;20441;-76
2022/10/16 09:05:29;;;;;;;0.60;0.10;;;17.40;1.00;;;;;;4970679;28;20517;-78
2022/10/16 09:08:04;;;;;;;0.60;0.10;;;17.40;1.00;;;;;;4984377;28;20438;-78
2022/10/16 09:10:49;;;;;;;0.60;0.13;;;17.50;1.00;;;;;;4971510;28;20536;-77
2022/10/16 09:13:24;;;;;;;0.60;0.10;;;17.40;1.00;;;;;;4983236;28;20450;-78
2022/10/16 09:15:59;;;;;;;0.60;0.10;;;17.40;1.00;;;;;;4967907;29;20483;-79
2022/10/16 09:18:36;;;;;;;0.60;0.10;;;17.40;1.00;;;;;;4992528;28;20442;-78
2022/10/16 09:21:14;;;;;;;0.60;0.10;;;17.40;1.00;;;;;;4985448;28;20466;-78
2022/10/16 09:23:42;;;;;;;0.60;0.10;;;17.30;1.00;;;;;;4976304;28;20438;-79
2022/10/16 09:26:13;;;;;;;0.60;0.10;;;17.30;1.00;;;;;;4983607;28;20490;-78
2022/10/16 09:28:42;;;;;;;0.60;0.10;;;17.30;1.00;;;;;;4982751;28;20513;-79
2022/10/16 09:31:17;;;;;;;0.60;0.10;;;17.30;1.00;;;;;;4981691;28;20489;-79
2022/10/16 09:33:51;;;;;;;0.60;0.10;;;17.30;1.00;;;;;;4986875;28;20463;-79
2022/10/16 09:36:20;;;;;;;0.60;0.20;;;17.30;1.00;;;;;;4977619;28;20482;-78
2022/10/16 09:38:49;;;;;;;0.60;0.10;;;17.30;1.00;;;;;;4982276;28;20450;-78
2022/10/16 09:41:20;;;;;;;0.60;0.10;;;17.30;1.00;;;;;;4967410;28;20466;-78
2022/10/16 09:43:55;;;;;;;0.60;0.10;;;17.30;1.00;;;;;;4975937;28;20454;-77
2022/10/16 09:46:27;;;;;;;0.60;0.10;;;17.30;1.00;;;;;;4982827;28;20541;-77
2022/10/16 09:48:59;;;;;;;0.60;0.10;;;17.30;1.00;;;;;;4975012;28;20454;-79
2022/10/16 09:51:29;;;;;;;0.60;0.10;;;17.30;1.00;;;;;;4984918;28;20446;-78
2022/10/16 09:53:59;;;;;;;0.60;0.10;;;17.30;1.00;;;;;;4979810;28;20453;-79
2022/10/16 09:56:29;;;;;;;0.60;0.10;;;17.30;1.00;;;;;;4966703;28;20521;-79
2022/10/16 09:58:59;;;;;;;0.60;0.10;;;17.30;1.00;;;;;;4974875;28;20458;-79
2022/10/16 10:01:32;;;;;;;0.60;0.10;;;17.30;1.00;;;;;;4976132;28;20442;-80
2022/10/16 10:04:02;;;;;;;0.60;0.10;;;17.30;1.00;;;;;;4971627;28;20438;-79
2022/10/16 10:06:34;;;;;;;0.60;0.10;;;17.30;1.00;;;;;;4975411;28;20486;-80
2022/10/16 10:09:06;;;;;;;0.60;0.10;;;17.30;1.00;;;;;;4983151;28;20882;-79
2022/10/16 10:11:45;;;;;;;0.60;0.10;;;17.40;1.00;;;;;;4971581;28;20557;-78
2022/10/16 10:14:19;;;;;;;0.60;0.10;;;17.40;1.00;;;;;;4973197;28;20475;-78
2022/10/16 10:16:48;;;;;;;0.60;0.10;;;17.40;1.00;;;;;;4982910;23;20530;-79
2022/10/16 10:19:19;;;;;;;0.60;0.10;;;17.50;1.00;;;;;;4955225;29;20479;-82
2022/10/16 10:21:47;;;;;;;0.60;0.10;;;17.50;1.00;;;;;;4954590;29;20463;-80
2022/10/16 10:24:17;;;;;;;0.60;0.10;;;17.70;1.00;;;;;;4938757;29;20463;-82
2022/10/16 10:26:58;;;;;;;0.60;0.10;;;17.70;1.00;;;;;;4952522;29;20566;-80
2022/10/16 10:29:46;;;;;;;0.60;0.10;;;17.80;1.00;;;;;;4957524;29;20470;-79
2022/10/16 10:32:25;;;;;;;0.60;0.10;;;17.80;1.00;;;;;;4951795;29;20467;-80
2022/10/16 10:35:08;;;;;;;0.80;0.33;;;17.90;1.00;;;;;;4956881;28;20458;-80
2022/10/16 10:37:47;;;;;;;0.60;0.10;;;17.80;1.00;;;;;;4956231;29;20451;-81
2022/10/16 10:40:24;;;;;;;0.60;0.10;;;18.00;1.00;;;;;;4954483;29;20486;-80
2022/10/16 10:42:58;;;;;;;0.60;0.10;;;18.00;1.00;;;;;;4945376;29;20498;-79
2022/10/16 10:45:34;;;;;;;0.60;0.10;;;18.20;1.00;;;;;;4949414;29;20488;-80
2022/10/16 10:48:22;;;;;;;0.60;0.10;;;18.20;1.00;;;;;;4963733;29;20497;-81
2022/10/16 10:50:56;;;;;;;0.60;0.10;;;18.40;1.00;;;;;;4951729;29;20455;-78
2022/10/16 10:53:35;;;;;;;0.60;0.10;;;18.40;1.00;;;;;;4959626;29;20528;-79
2022/10/16 10:56:15;;;;;;;0.60;0.10;;;18.50;1.00;;;;;;4948495;29;20818;-79
2022/10/16 10:59:09;;;;;;;0.60;0.10;;;18.50;1.00;;;;;;4954356;29;20792;-79
2022/10/16 11:01:47;;;;;;;0.60;0.10;;;18.60;1.00;;;;;;4956350;29;20479;-80
2022/10/16 11:04:50;;;;;;;0.60;0.10;;;18.90;1.00;;;;;;4960800;29;20442;-78
2022/10/16 11:07:26;;;;;;;0.60;0.10;;;19.10;1.00;;;;;;4942524;29;20490;-81
2022/10/16 11:09:59;;;;;;;0.60;0.10;;;19.10;1.00;;;;;;4957931;29;20430;-78
2022/10/16 11:12:31;;;;;;;0.60;0.20;;;19.20;1.00;;;;;;4953723;29;20471;-80
2022/10/16 11:15:05;;;;;;;0.60;0.10;;;19.40;1.00;;;;;;4959503;29;20477;-78
2022/10/16 11:17:39;;;;;;;0.60;0.20;;;19.40;1.00;;;;;;4963650;29;21048;-80
2022/10/16 11:20:17;;;;;;;0.60;0.10;;;19.50;1.00;;;;;;4960967;29;20858;-80
2022/10/16 11:22:51;;;;;;;0.60;0.10;;;19.50;1.00;;;;;;4971378;29;20481;-78
2022/10/16 11:25:23;;;;;;;0.60;0.10;;;19.50;1.00;;;;;;4961885;29;20470;-80
2022/10/16 11:27:56;;;;;;;0.70;0.30;;;19.60;1.00;;;;;;4967576;29;20461;-81
2022/10/16 11:30:27;;;;;;;0.70;0.20;;;19.50;1.00;;;;;;4968736;29;20470;-78
2022/10/16 11:33:09;;;;;;;1.80;0.87;;;19.20;1.00;;;;;;4959392;28;20450;-80
2022/10/16 11:35:44;;;;;;;0.60;0.10;;;19.20;1.00;;;;;;4959981;28;20505;-77
2022/10/16 11:38:22;;;;;;;0.90;0.57;;;19.10;1.00;;;;;;4965604;29;20461;-79
2022/10/16 11:40:54;;;;;;;0.60;0.10;;;19.10;1.00;;;;;;4958378;29;20451;-80
2022/10/16 11:43:29;;;;;;;1.40;0.80;;;19.10;1.00;;;;;;4954890;29;20543;-80
2022/10/16 11:45:59;;;;;;;0.80;0.47;;;19.00;1.00;;;;;;4959546;28;20482;-80
2022/10/16 11:48:34;;;;;;;0.60;0.20;;;18.90;1.00;;;;;;4965715;29;20455;-80
2022/10/16 11:51:12;;;;;;;0.60;0.30;;;18.90;1.00;;;;;;4955333;29;20490;-79
2022/10/16 11:53:47;;;;;;;0.60;0.10;;;18.80;1.00;;;;;;4957799;29;20466;-80
2022/10/16 11:56:18;;;;;;;0.60;0.10;;;18.80;1.00;;;;;;4957458;29;20986;-79
2022/10/16 11:58:56;;;;;;;0.60;0.20;;;18.80;1.00;;;;;;4966118;29;21030;-80
2022/10/16 12:01:31;;;;;;;0.70;0.40;;;18.90;1.00;;;;;;4961522;29;20486;-81
2022/10/16 12:04:18;;;;;;;0.60;0.10;;;19.00;1.00;;;;;;4958925;29;20456;-80
2022/10/16 12:06:51;;;;;;;0.60;0.10;;;19.00;1.00;;;;;;4953942;29;20487;-80
2022/10/16 12:09:26;;;;;;;0.60;0.20;;;19.20;1.00;;;;;;4957748;29;20457;-80
2022/10/16 12:11:55;;;;;;;0.70;0.40;;;19.40;1.00;;;;;;4949346;29;20968;-80
2022/10/16 12:14:37;;;;;;;0.60;0.10;;;19.60;1.00;;;;;;4958568;29;20471;-81
2022/10/16 12:17:28;;;;;;;0.60;0.20;;;19.70;1.00;;;;;;4961922;29;20486;-80
2022/10/16 12:20:02;;;;;;;0.60;0.10;;;19.90;1.00;;;;;;4962564;29;20454;-79
2022/10/16 12:22:32;;;;;;;0.60;0.10;;;20.10;1.00;;;;;;4958377;29;20443;-79
2022/10/16 12:25:21;;;;;;;0.60;0.20;;;20.20;1.00;;;;;;4964707;28;20467;-79
2022/10/16 12:28:00;;;;;;;0.60;0.20;;;20.40;1.00;;;;;;4958057;29;20478;-80
2022/10/16 12:30:30;;;;;;;2.03;1.30;;;20.40;1.00;;;;;;4964239;28;20467;-79
2022/10/16 12:33:04;;;;;;;0.60;0.10;;;20.40;1.00;;;;;;4964430;29;20532;-80
2022/10/16 12:35:36;;;;;;;0.60;0.20;;;20.40;1.00;;;;;;4954096;29;20957;-81
2022/10/16 12:38:18;;;;;;;0.60;0.13;;;20.40;1.00;;;;;;4961689;29;20806;-80
2022/10/16 12:40:55;;;;;;;0.60;0.10;;;20.50;1.00;;;;;;4957337;28;20464;-79
2022/10/16 12:43:36;;;;;;;0.63;0.27;;;20.70;1.00;;;;;;4956254;29;20474;-79
2022/10/16 12:46:06;;;;;;;0.60;0.10;;;20.70;1.00;;;;;;4960587;29;20893;-80
2022/10/16 12:48:36;;;;;;;0.60;0.13;;;20.70;1.00;;;;;;4959783;29;20463;-80
2022/10/16 12:51:25;;;;;;;0.60;0.20;;;20.60;1.00;;;;;;4960256;29;20459;-79
2022/10/16 12:54:00;;;;;;;0.60;0.10;;;20.60;1.00;;;;;;4958444;29;20461;-81
2022/10/16 12:56:41;;;;;;;0.60;0.10;;;20.50;1.00;;;;;;4963101;28;20518;-80
2022/10/16 12:59:20;;;;;;;0.60;0.10;;;20.50;1.00;;;;;;4963759;29;20486;-79
2022/10/16 13:02:06;;;;;;;0.60;0.10;;;20.60;1.00;;;;;;4954429;29;20447;-80
2022/10/16 13:04:47;;;;;;;0.60;0.30;;;20.60;1.00;;;;;;4952493;29;20487;-80
2022/10/16 13:07:43;;;;;;;0.60;0.20;;;20.50;1.00;;;;;;4949418;29;20490;-80
2022/10/16 13:10:23;;;;;;;0.70;0.30;;;20.50;1.00;;;;;;4958648;29;20440;-81
2022/10/16 13:13:15;;;;;;;0.60;0.10;;;20.40;1.00;;;;;;4959863;29;20452;-80
2022/10/16 13:16:06;;;;;;;0.60;0.10;;;20.40;1.00;;;;;;4954482;29;20479;-80
2022/10/16 13:18:44;;;;;;;0.60;0.10;;;20.40;1.00;;;;;;4962438;29;20485;-81
2022/10/16 13:21:28;;;;;;;0.60;0.17;;;20.50;1.00;;;;;;4958982;29;20513;-74
2022/10/16 13:24:03;;;;;;;0.60;0.10;;;20.50;1.00;;;;;;4952362;29;20447;-72
2022/10/16 13:26:42;;;;;;;0.60;0.10;;;20.50;1.00;;;;;;4955178;29;20478;-81
2022/10/16 13:29:13;;;;;;;0.70;0.57;;;20.50;1.00;;;;;;4962376;29;20479;-80
2022/10/16 13:31:43;;;;;;;0.60;0.10;;;20.50;1.00;;;;;;4959010;29;20440;-80
2022/10/16 13:34:16;;;;;;;0.60;0.10;;;20.50;1.00;;;;;;4946705;29;20931;-81
2022/10/16 13:36:46;;;;;;;0.60;0.10;;;20.50;1.00;;;;;;4961157;28;20463;-80
2022/10/16 13:39:17;;;;;;;0.60;0.30;;;20.50;1.00;;;;;;4960966;29;20812;-80
2022/10/16 13:41:46;;;;;;;0.60;0.20;;;20.50;1.00;;;;;;4956979;28;20454;-81
2022/10/16 13:44:20;;;;;;;0.60;0.10;;;20.60;1.00;;;;;;4947521;29;20451;-81
2022/10/16 13:46:59;;;;;;;0.60;0.10;;;20.50;1.00;;;;;;4955885;28;20487;-80
2022/10/16 13:49:28;;;;;;;0.60;0.10;;;20.60;1.00;;;;;;4960838;29;20820;-81
2022/10/16 13:51:57;;;;;;;0.60;0.10;;;20.60;1.00;;;;;;4955979;28;20455;-80
2022/10/16 13:54:28;;;;;;;0.60;0.10;;;20.60;1.00;;;;;;4961082;29;20459;-82
2022/10/16 13:56:56;;;;;;;0.60;0.10;;;20.50;1.00;;;;;;4953921;28;20471;-80
2022/10/16 13:59:38;;;;;;;0.60;0.10;;;20.60;1.00;;;;;;4962401;29;20439;-81
2022/10/16 14:02:17;;;;;;;0.60;0.10;;;20.60;1.00;;;;;;4959719;29;20451;-80
2022/10/16 14:04:47;;;;;;;0.60;0.10;;;20.60;1.00;;;;;;4956670;28;20537;-80
2022/10/16 14:07:22;;;;;;;0.60;0.10;;;20.60;1.00;;;;;;4948049;29;20484;-80
2022/10/16 14:09:52;;;;;;;0.60;0.10;;;20.60;1.00;;;;;;4959187;29;20446;-80
2022/10/16 14:12:20;;;;;;;0.60;0.10;;;20.60;1.00;;;;;;4955648;29;20456;-79
2022/10/16 14:14:58;;;;;;;0.60;0.10;;;20.60;1.00;;;;;;4961752;29;20518;-82
2022/10/16 14:17:28;;;;;;;0.60;0.10;;;20.50;1.00;;;;;;4957197;29;20448;-81
2022/10/16 14:20:02;;;;;;;0.60;0.10;;;20.50;1.00;;;;;;4956210;29;20965;-80
2022/10/16 14:22:35;;;;;;;0.60;0.10;;;20.50;1.00;;;;;;4958838;29;20526;-82
2022/10/16 14:25:26;;;;;;;0.60;0.10;;;20.40;1.00;;;;;;4957407;29;20701;-80
2022/10/16 14:27:59;;;;;;;0.60;0.10;;;20.40;1.00;;;;;;4945298;29;20494;-82
2022/10/16 14:30:35;;;;;;;0.60;0.10;;;20.40;1.00;;;;;;4962910;29;20485;-83
2022/10/16 14:33:05;;;;;;;0.60;0.10;;;20.40;1.00;;;;;;4962814;29;20463;-79
2022/10/16 14:35:36;;;;;;;0.60;0.10;;;20.40;1.00;;;;;;4959885;28;20479;-81
2022/10/16 14:38:06;;;;;;;0.60;0.10;;;20.40;1.00;;;;;;4961660;29;20420;-80
2022/10/16 14:40:36;;;;;;;0.60;0.10;;;20.40;1.00;;;;;;4960380;29;20809;-80
2022/10/16 14:43:06;;;;;;;0.60;0.10;;;20.30;1.00;;;;;;4953899;29;20459;-80
2022/10/16 14:45:36;;;;;;;0.60;0.13;;;20.40;1.00;;;;;;4953999;28;20556;-80
2022/10/16 14:48:15;;;;;;;0.60;0.10;;;20.40;1.00;;;;;;4947901;29;20475;-78
2022/10/16 14:50:47;;;;;;;0.60;0.20;;;20.40;1.00;;;;;;4959095;28;20469;-81
2022/10/16 14:53:15;;;;;;;0.60;0.10;;;20.40;1.00;;;;;;4954120;28;20483;-81
2022/10/16 14:55:44;;;;;;;0.60;0.10;;;;;;;;;;4958150;28;20483;-81
2022/10/16 14:58:16;;;;;;;0.60;0.10;;;20.40;1.00;;;;;;4959470;29;20456;-82
2022/10/16 15:00:46;;;;;;;0.60;0.10;;;20.40;1.00;;;;;;4951249;29;20444;-80
2022/10/16 15:03:15;;;;;;;0.60;0.10;;;20.40;1.00;;;;;;4963398;29;20548;-81
2022/10/16 15:05:43;;;;;;;0.60;0.10;;;20.50;1.00;;;;;;4964599;28;20477;-80
2022/10/16 15:08:12;;;;;;;0.60;0.30;;;20.40;1.00;;;;;;4958167;29;20979;-80
2022/10/16 15:10:43;;;;;;;0.60;0.10;;;20.40;1.00;;;;;;4958660;29;20451;-77
2022/10/16 15:13:16;;;;;;;0.60;0.10;;;20.50;1.00;;;;;;4949196;29;20455;-81
2022/10/16 15:15:48;;;;;;;0.60;0.10;;;20.50;1.00;;;;;;4965353;28;20498;-81
2022/10/16 15:18:20;;;;;;;0.60;0.10;;;20.50;1.00;;;;;;4965810;29;20824;-81
2022/10/16 15:20:50;;;;;;;0.60;0.10;;;20.60;1.00;;;;;;4964529;29;20459;-81
2022/10/16 15:23:21;;;;;;;0.60;0.10;;;20.70;1.00;;;;;;4952377;29;20474;-79
2022/10/16 15:25:52;;;;;;;0.60;0.10;;;20.70;1.00;;;;;;4961599;29;20791;-81
2022/10/16 15:28:21;;;;;;;0.60;0.10;;;20.60;1.00;;;;;;4955931;29;20582;-81
2022/10/16 15:30:52;;;;;;;0.60;0.20;;;20.60;1.00;;;;;;4956941;29;20443;-83
2022/10/16 15:33:26;;;;;;;0.60;0.10;;;20.60;1.00;;;;;;4951384;29;20976;-83
2022/10/16 15:35:55;;;;;;;0.60;0.10;;;20.60;1.00;;;;;;4965278;28;20470;-81
2022/10/16 15:38:24;;;;;;;0.60;0.20;;;20.50;1.00;;;;;;4964015;29;20498;-81
2022/10/16 15:40:52;;;;;;;0.60;0.10;;;20.50;1.00;;;;;;4958988;29;21189;-74
2022/10/16 15:43:20;;;;;;;0.60;0.10;;;;;;;;;;4960435;29;20459;-81
2022/10/16 15:46:01;;;;;;;0.60;0.10;;;20.50;1.00;;;;;;4954737;29;20670;-81
2022/10/16 15:48:30;;;;;;;0.60;0.10;;;20.40;1.00;;;;;;4950918;29;20545;-80
2022/10/16 15:50:58;;;;;;;0.60;0.10;;;;;;;;;;4965354;29;20447;-80
2022/10/16 15:53:27;;;;;;;0.60;0.10;;;;;;;;;;4969352;29;20469;-81
2022/10/16 15:55:55;;;;;;;0.60;0.10;;;20.30;1.00;;;;;;4958907;29;20463;-81
2022/10/16 15:58:24;;;;;;;0.60;0.20;;;;;;;;;;4961858;29;20449;-80
2022/10/16 16:00:56;;;;;;;0.60;0.10;;;20.20;1.00;;;;;;4967787;29;20969;-84
2022/10/16 16:03:26;;;;;;;0.60;0.10;;;20.20;1.00;;;;;;4963955;29;21010;-83
2022/10/16 16:05:55;;;;;;;0.60;0.10;;;20.20;1.00;;;;;;4969509;28;20494;-80
2022/10/16 16:08:31;;;;;;;25.87;3.93;;;20.20;1.00;;;;;;4964008;29;20539;-81
2022/10/16 16:11:26;;;;;;;0.60;0.10;;;20.10;1.00;;;;;;4953999;29;20439;-83
2022/10/16 16:14:04;;;;;;;0.60;0.10;;;20.10;1.00;;;;;;4949852;29;20449;-81
2022/10/16 16:16:36;;;;;;;0.60;0.13;;;20.10;1.00;;;;;;4967088;28;20493;-80
2022/10/16 16:19:10;;;;;;;0.60;0.10;;;;;;;;;;4961431;29;20437;-83
2022/10/16 16:22:00;;;;;;;0.60;0.10;;;;;;;;;;4960130;28;20455;-83
2022/10/16 16:24:51;;;;;;;0.60;0.10;;;;;;;;;;4965277;29;20460;-84
2022/10/16 16:27:38;;;;;;;0.60;0.10;;;;;;;;;;4967649;29;20443;-80
2022/10/16 16:30:37;;;;;;;0.60;0.10;;;19.90;1.00;;;;;;4968013;29;20514;-82
2022/10/16 16:33:09;;;;;;;0.60;0.10;;;;;;;;;;4950022;29;20459;-77
2022/10/16 16:35:40;;;;;;;0.60;0.10;;;19.90;1.00;;;;;;4951137;29;20463;-80
2022/10/16 16:38:08;;;;;;;0.60;0.20;;;19.90;1.00;;;;;;4964880;29;20451;-80
2022/10/16 16:40:36;;;;;;;0.60;0.20;;;19.90;1.00;;;;;;4960120;29;20470;-80
2022/10/16 16:43:28;;;;;;;0.60;0.10;;;19.90;1.00;;;;;;4963100;29;20451;-82
2022/10/16 16:46:02;;;;;;;0.60;0.10;;;;;;;;;;4959126;28;20558;-82
2022/10/16 16:48:40;;;;;;;0.60;0.10;;;19.90;1.00;;;;;;4962060;29;20584;-81
2022/10/16 16:51:28;;;;;;;0.60;0.10;;;19.80;1.00;;;;;;4965062;29;20431;-82
2022/10/16 16:53:56;;;;;;;0.60;0.10;;;;;;;;;;4967900;29;20447;-82
2022/10/16 16:56:26;;;;;;;0.60;0.10;;;19.80;1.00;;;;;;4957160;28;21090;-73
2022/10/16 16:58:56;;;;;;;0.60;0.10;;;19.70;1.00;;;;;;4970284;29;20444;-84
2022/10/16 17:01:26;;;;;;;0.60;0.10;;;19.70;1.00;;;;;;4971531;29;20451;-81
2022/10/16 17:03:56;;;;;;;0.60;0.10;;;19.70;1.00;;;;;;4971391;29;20451;-82
2022/10/16 17:06:29;;;;;;;0.60;0.13;;;19.70;1.00;;;;;;4967495;29;20543;-83
2022/10/16 17:08:57;;;;;;;0.60;0.10;;;19.60;1.00;;;;;;4971182;29;20499;-85
2022/10/16 17:11:27;;;;;;;0.60;0.10;;;19.60;1.00;;;;;;4965038;29;20507;-84
2022/10/16 17:13:57;;;;;;;0.60;0.10;;;19.60;1.00;;;;;;4971223;29;20458;-81
2022/10/16 17:16:35;;;;;;;0.60;0.10;;;19.60;1.00;;;;;;4969078;28;20514;-86
2022/10/16 17:19:05;;;;;;;0.60;0.10;;;19.60;1.00;;;;;;4957499;29;21696;-75
2022/10/16 17:21:35;;;;;;;0.70;0.40;;;19.60;1.00;;;;;;4940254;29;20463;-78
2022/10/16 17:24:04;;;;;;;0.60;0.10;;;19.50;1.00;;;;;;4951295;29;20566;-77
2022/10/16 17:26:33;;;;;;;0.60;0.10;;;19.50;1.00;;;;;;4955052;28;20973;-75
2022/10/16 17:29:02;;;;;;;1.03;0.73;;;19.40;1.00;;;;;;4955575;29;20479;-78
2022/10/16 17:31:31;;;;;;;0.60;0.30;;;19.40;1.00;;;;;;4954905;29;20479;-76